createdAt,value
2022-11-17T00:02:29.347Z,4.53
2022-11-17T00:05:07.158Z,2.65
2022-11-17T00:07:42.832Z,2.25
2022-11-17T00:10:41.234Z,4.70
2022-11-17T00:13:37.887Z,2.60
2022-11-17T00:16:34.511Z,7.00
2022-11-17T00:19:28.545Z,4.97
2022-11-17T00:22:09.807Z,3.10
2022-11-17T00:24:55.819Z,3.80
2022-11-17T00:27:39.384Z,2.83
2022-11-17T00:30:43.955Z,3.17
2022-11-17T00:33:45.577Z,2.72
2022-11-17T00:36:31.745Z,3.03
2022-11-17T00:39:09.588Z,5.63
2022-11-17T00:41:51.470Z,2.40
2022-11-17T00:44:30.864Z,2.80
2022-11-17T00:47:07.057Z,3.15
2022-11-17T00:49:38.345Z,4.30
2022-11-17T00:52:17.853Z,5.18
2022-11-17T00:58:12.280Z,2.05
2022-11-17T01:00:47.166Z,1.98
2022-11-17T01:03:25.735Z,3.05
2022-11-17T01:05:55.822Z,4.90
2022-11-17T01:08:56.516Z,4.25
2022-11-17T01:11:34.025Z,3.22
2022-11-17T01:14:37.932Z,2.70
2022-11-17T01:17:33.892Z,2.42
2022-11-17T01:20:26.843Z,2.65
2022-11-17T01:23:05.020Z,4.35
2022-11-17T01:25:46.656Z,3.83
2022-11-17T01:28:20.883Z,2.15
2022-11-17T01:31:08.418Z,4.15
2022-11-17T01:33:48.076Z,3.90
2022-11-17T01:39:55.363Z,4.07
2022-11-17T01:42:58.881Z,3.10
2022-11-17T01:45:52.297Z,2.97
2022-11-17T01:49:10.641Z,2.28
2022-11-17T01:52:16.318Z,3.78
2022-11-17T01:55:06.329Z,3.05
2022-11-17T01:58:00.397Z,4.20
2022-11-17T02:00:39.424Z,4.05
2022-11-17T02:03:31.364Z,4.70
2022-11-17T02:06:31.454Z,5.65
2022-11-17T02:09:46.653Z,5.13
2022-11-17T02:13:09.678Z,5.57
2022-11-17T02:15:52.730Z,5.63
2022-11-17T02:19:23.457Z,3.78
2022-11-17T02:22:29.361Z,5.50
2022-11-17T02:25:41.408Z,5.38
2022-11-17T02:28:49.063Z,5.47
2022-11-17T02:31:28.833Z,10.00
2022-11-17T02:34:28.389Z,6.45
2022-11-17T02:37:45.062Z,7.07
2022-11-17T02:41:02.547Z,6.07
2022-11-17T02:47:16.864Z,7.13
2022-11-17T02:50:02.042Z,6.97
2022-11-17T02:53:25.874Z,5.47
2022-11-17T02:56:05.768Z,7.57
2022-11-17T02:58:46.775Z,6.53
2022-11-17T03:01:33.712Z,7.88
2022-11-17T03:04:30.270Z,8.27
2022-11-17T03:07:22.789Z,6.53
2022-11-17T03:10:03.038Z,4.68
2022-11-17T03:13:04.223Z,8.70
2022-11-17T03:16:01.042Z,8.10
2022-11-17T03:19:10.262Z,8.10
2022-11-17T03:22:21.537Z,5.45
2022-11-17T03:25:15.893Z,8.23
2022-11-17T03:28:05.732Z,9.52
2022-11-17T03:31:10.937Z,9.13
2022-11-17T04:21:55.128Z,11.07
2022-11-17T04:25:05.193Z,6.97
2022-11-17T04:28:48.672Z,10.85
2022-11-17T04:35:19.304Z,12.00
2022-11-17T04:38:40.235Z,12.98
2022-11-17T04:42:25.694Z,7.18
2022-11-17T04:45:41.823Z,9.07
2022-11-17T04:48:18.153Z,9.18
2022-11-17T04:50:56.167Z,11.57
2022-11-17T04:53:43.740Z,15.00
2022-11-17T04:56:15.935Z,8.52
2022-11-17T04:58:46.377Z,12.43
2022-11-17T05:02:02.539Z,25.23
2022-11-17T05:10:51.659Z,10.50
2022-11-17T05:13:27.708Z,13.52
2022-11-17T05:16:20.636Z,13.43
2022-11-17T05:19:04.638Z,11.73
2022-11-17T05:22:06.487Z,15.10
2022-11-17T05:24:45.734Z,12.65
2022-11-17T05:27:27.782Z,12.48
2022-11-17T05:30:31.259Z,12.30
2022-11-17T05:33:10.118Z,9.10
2022-11-17T05:36:22.600Z,9.45
2022-11-17T05:39:01.434Z,9.88
2022-11-17T05:41:34.160Z,9.77
2022-11-17T05:44:13.859Z,12.98
2022-11-17T05:47:07.423Z,12.05
2022-11-17T05:49:52.401Z,10.88
2022-11-17T05:52:26.422Z,11.57
2022-11-17T05:55:09.217Z,10.70
2022-11-17T05:57:40.279Z,9.52
2022-11-17T06:00:27.445Z,10.18
2022-11-17T06:03:07.416Z,12.73
2022-11-17T06:05:51.858Z,10.90
2022-11-17T06:08:38.609Z,9.63
2022-11-17T06:14:37.430Z,10.35
2022-11-17T06:17:57.505Z,11.52
2022-11-17T06:21:08.856Z,7.47
2022-11-17T06:23:37.583Z,9.23
2022-11-17T06:26:09.048Z,12.32
2022-11-17T06:28:38.846Z,8.63
2022-11-17T06:31:06.195Z,9.13
2022-11-17T06:33:35.325Z,8.40
2022-11-17T06:36:04.112Z,12.75
2022-11-17T06:38:33.445Z,8.07
2022-11-17T06:41:00.374Z,15.27
2022-11-17T06:43:27.257Z,7.85
2022-11-17T06:45:54.177Z,8.57
2022-11-17T06:48:26.884Z,13.52
2022-11-17T06:50:54.852Z,10.20
2022-11-17T06:53:23.294Z,7.43
2022-11-17T06:55:59.119Z,12.32
2022-11-17T06:58:26.516Z,10.25
2022-11-17T07:00:53.680Z,14.05
2022-11-17T07:03:21.050Z,12.75
